createdAt,value
2022-08-24T00:01:56.549Z,21.80
2022-08-24T00:04:25.092Z,21.80
2022-08-24T00:06:53.495Z,21.80
2022-08-24T00:09:21.591Z,21.80
2022-08-24T00:11:49.428Z,21.80
2022-08-24T00:14:17.596Z,21.70
2022-08-24T00:16:45.600Z,21.70
2022-08-24T00:19:14.491Z,21.70
2022-08-24T00:21:43.045Z,21.70
2022-08-24T00:24:11.714Z,21.70
2022-08-24T00:26:39.511Z,21.60
2022-08-24T00:29:07.898Z,21.60
2022-08-24T00:31:36.309Z,21.50
2022-08-24T00:34:04.317Z,21.50
2022-08-24T00:36:32.761Z,21.40
2022-08-24T00:39:01.071Z,21.30
2022-08-24T00:41:29.830Z,21.30
2022-08-24T00:44:01.617Z,21.30
2022-08-24T00:46:32.983Z,21.20
2022-08-24T00:49:13.271Z,21.20
2022-08-24T00:52:11.659Z,21.20
2022-08-24T00:54:46.418Z,21.10
2022-08-24T00:57:19.201Z,21.10
2022-08-24T00:59:52.799Z,21.10
2022-08-24T01:02:27.263Z,21.00
2022-08-24T01:05:02.008Z,21.00
2022-08-24T01:07:31.913Z,21.00
2022-08-24T01:10:08.204Z,21.00
2022-08-24T01:12:38.240Z,21.00
2022-08-24T01:15:09.537Z,21.00
2022-08-24T01:17:57.094Z,21.00
2022-08-24T01:20:27.105Z,21.00
2022-08-24T01:23:16.561Z,21.00
2022-08-24T01:25:45.303Z,21.00
2022-08-24T01:28:25.188Z,21.00
2022-08-24T01:30:55.854Z,21.00
2022-08-24T01:33:29.497Z,21.00
2022-08-24T01:36:11.575Z,21.10
2022-08-24T01:38:39.528Z,21.00
2022-08-24T01:41:07.779Z,21.00
2022-08-24T01:43:37.374Z,21.00
2022-08-24T01:46:08.626Z,21.00
2022-08-24T01:48:37.642Z,21.00
2022-08-24T01:51:07.072Z,21.00
2022-08-24T01:53:35.060Z,21.00
2022-08-24T01:56:04.180Z,21.00
2022-08-24T01:58:32.791Z,20.90
2022-08-24T02:01:00.859Z,20.90
2022-08-24T02:03:30.448Z,20.90
2022-08-24T02:05:59.797Z,20.90
2022-08-24T02:08:29.156Z,20.90
2022-08-24T02:10:57.518Z,20.90
2022-08-24T02:13:27.347Z,20.90
2022-08-24T02:15:55.368Z,20.90
2022-08-24T02:18:23.727Z,20.90
2022-08-24T02:20:51.956Z,20.90
2022-08-24T02:23:20.942Z,20.90
2022-08-24T02:25:49.299Z,20.90
2022-08-24T02:28:17.707Z,20.90
2022-08-24T02:30:45.636Z,20.90
2022-08-24T02:33:13.869Z,20.90
2022-08-24T02:35:42.482Z,20.90
2022-08-24T02:38:10.884Z,20.90
2022-08-24T02:40:40.052Z,20.80
2022-08-24T02:43:08.128Z,20.80
2022-08-24T02:45:48.287Z,20.80
2022-08-24T02:48:19.974Z,20.80
2022-08-24T02:50:50.183Z,20.80
2022-08-24T02:53:20.345Z,20.80
2022-08-24T02:55:49.136Z,20.80
2022-08-24T02:58:18.542Z,20.80
2022-08-24T03:00:49.031Z,20.80
2022-08-24T03:03:20.321Z,20.80
2022-08-24T03:05:48.260Z,20.80
2022-08-24T03:08:16.411Z,20.70
2022-08-24T03:10:45.236Z,20.70
2022-08-24T03:13:13.767Z,20.70
2022-08-24T03:15:41.987Z,20.70
2022-08-24T03:18:09.967Z,20.70
2022-08-24T03:20:38.261Z,20.60
2022-08-24T03:23:06.457Z,20.60
2022-08-24T03:25:34.298Z,20.60
2022-08-24T03:28:02.964Z,20.60
2022-08-24T03:30:37.120Z,20.60
2022-08-24T03:33:05.989Z,20.60
2022-08-24T03:35:34.180Z,20.60
2022-08-24T03:38:02.859Z,20.60
2022-08-24T03:40:33.587Z,20.70
2022-08-24T03:43:02.546Z,20.70
2022-08-24T03:45:31.096Z,20.70
2022-08-24T03:47:59.521Z,20.70
2022-08-24T03:50:28.004Z,20.70
2022-08-24T03:52:56.148Z,20.70
2022-08-24T03:55:23.982Z,20.70
2022-08-24T03:57:51.917Z,20.70
2022-08-24T04:00:20.468Z,20.80
2022-08-24T04:02:57.193Z,20.80
2022-08-24T04:05:27.469Z,20.90
2022-08-24T04:07:55.865Z,20.90
2022-08-24T04:10:24.762Z,21.00
2022-08-24T04:12:55.003Z,21.10
2022-08-24T04:15:24.722Z,21.10
2022-08-24T04:17:52.885Z,21.10
2022-08-24T04:20:21.014Z,21.20
2022-08-24T04:22:52.234Z,21.30
2022-08-24T04:25:25.051Z,21.30
2022-08-24T04:27:53.288Z,21.50
2022-08-24T04:30:23.292Z,21.50
2022-08-24T04:33:07.173Z,21.50
2022-08-24T04:35:45.529Z,21.60
2022-08-24T04:38:14.423Z,21.60
2022-08-24T04:41:05.834Z,21.60
2022-08-24T04:43:36.462Z,21.70
2022-08-24T04:46:08.417Z,21.70
2022-08-24T04:48:36.850Z,21.70
2022-08-24T04:51:09.976Z,21.70
2022-08-24T04:53:40.725Z,21.80
2022-08-24T04:56:16.086Z,21.80
2022-08-24T04:58:45.112Z,21.80
2022-08-24T05:01:19.733Z,21.90
2022-08-24T05:03:50.648Z,22.00
2022-08-24T05:06:20.942Z,22.10
2022-08-24T05:08:49.270Z,22.00
2022-08-24T05:11:18.981Z,22.10
2022-08-24T05:13:47.391Z,22.20
2022-08-24T05:16:18.524Z,22.20
2022-08-24T05:18:48.666Z,22.30
2022-08-24T05:21:21.982Z,22.30
2022-08-24T05:23:51.503Z,22.40
2022-08-24T05:26:24.123Z,22.50
2022-08-24T05:28:58.059Z,22.60
2022-08-24T05:31:30.274Z,22.60
2022-08-24T05:34:03.498Z,22.70
2022-08-24T05:36:35.154Z,22.80
2022-08-24T05:39:11.138Z,22.90
2022-08-24T05:41:44.227Z,23.00
2022-08-24T05:44:26.920Z,23.00
2022-08-24T05:47:01.397Z,23.20
2022-08-24T05:49:30.000Z,23.30
2022-08-24T05:51:57.910Z,23.40
2022-08-24T05:54:27.207Z,23.40
2022-08-24T05:57:05.142Z,23.50
2022-08-24T05:59:56.219Z,23.50
2022-08-24T06:02:24.557Z,23.60
2022-08-24T06:04:52.469Z,23.70
2022-08-24T06:07:20.647Z,23.80
2022-08-24T06:09:55.171Z,23.90
2022-08-24T06:12:23.214Z,24.00
2022-08-24T06:14:51.604Z,24.10
2022-08-24T06:17:24.143Z,24.10
2022-08-24T06:19:52.680Z,24.20
2022-08-24T06:22:20.622Z,24.20
2022-08-24T06:25:07.141Z,24.30
2022-08-24T06:27:35.391Z,24.30
2022-08-24T06:30:10.398Z,24.40
2022-08-24T06:32:44.418Z,24.50
2022-08-24T06:35:22.809Z,24.50
2022-08-24T06:37:50.736Z,24.60
2022-08-24T06:40:22.662Z,24.70
2022-08-24T06:42:50.927Z,24.70
2022-08-24T06:45:43.845Z,24.70
2022-08-24T06:48:14.725Z,24.70
2022-08-24T06:50:43.390Z,24.80
2022-08-24T06:53:15.087Z,24.80
2022-08-24T06:55:49.433Z,24.80
2022-08-24T06:58:19.618Z,24.90
2022-08-24T07:00:48.551Z,25.00
2022-08-24T07:03:19.463Z,25.00
2022-08-24T07:05:59.779Z,25.10
2022-08-24T07:08:42.563Z,25.20
2022-08-24T07:11:15.185Z,25.30
2022-08-24T07:13:44.412Z,25.40
2022-08-24T07:16:12.572Z,25.40
2022-08-24T07:18:42.009Z,25.50
2022-08-24T07:21:13.921Z,25.50
2022-08-24T07:23:50.131Z,25.60
2022-08-24T07:26:22.915Z,25.70
2022-08-24T07:29:05.224Z,25.80
2022-08-24T07:31:42.769Z,25.90
2022-08-24T07:34:22.699Z,25.90
2022-08-24T07:36:52.566Z,26.00
2022-08-24T07:39:21.433Z,26.10
2022-08-24T07:42:12.376Z,26.10
2022-08-24T07:44:39.485Z,26.20
2022-08-24T07:47:34.258Z,26.30
2022-08-24T07:49:56.850Z,26.40
2022-08-24T07:52:25.135Z,26.50
2022-08-24T07:54:52.950Z,26.60
2022-08-24T07:57:21.038Z,26.70
2022-08-24T07:59:49.580Z,26.80
2022-08-24T08:02:18.603Z,26.90
2022-08-24T08:04:50.701Z,26.90
2022-08-24T08:07:19.901Z,27.00
2022-08-24T08:09:49.944Z,27.00
2022-08-24T08:12:19.580Z,27.20
2022-08-24T08:14:57.996Z,27.30
2022-08-24T08:17:26.373Z,27.30
2022-08-24T08:19:54.720Z,27.40
2022-08-24T08:22:41.139Z,27.40
2022-08-24T08:25:49.429Z,27.40
2022-08-24T08:28:26.361Z,27.50
2022-08-24T08:31:05.910Z,27.50
2022-08-24T08:33:38.725Z,27.60
2022-08-24T08:36:11.744Z,27.60
2022-08-24T08:38:45.435Z,27.60
2022-08-24T08:41:37.537Z,27.60
2022-08-24T08:44:33.484Z,27.70
2022-08-24T08:47:27.591Z,27.70
2022-08-24T08:50:13.545Z,27.70
2022-08-24T08:53:06.494Z,27.80
2022-08-24T08:56:01.759Z,27.80
2022-08-24T08:58:57.456Z,27.90
2022-08-24T09:01:49.451Z,27.90
2022-08-24T09:04:57.065Z,27.90
2022-08-24T09:07:37.414Z,28.00
2022-08-24T09:10:13.847Z,28.10
2022-08-24T09:12:50.892Z,28.20
2022-08-24T09:15:57.589Z,28.30
2022-08-24T09:18:33.257Z,28.30
2022-08-24T09:21:28.955Z,28.40
2022-08-24T09:24:27.444Z,28.40
2022-08-24T09:27:32.975Z,28.50
2022-08-24T09:30:18.658Z,28.50
2022-08-24T09:32:59.651Z,28.60
2022-08-24T09:35:52.847Z,28.60
2022-08-24T09:38:41.859Z,28.70
2022-08-24T09:41:40.564Z,28.70
2022-08-24T09:44:27.851Z,28.80
2022-08-24T09:47:17.850Z,28.80
2022-08-24T09:50:04.850Z,28.80
2022-08-24T09:53:00.992Z,28.70
2022-08-24T09:55:48.057Z,28.60
2022-08-24T09:58:24.752Z,28.70
2022-08-24T10:01:09.123Z,28.90
2022-08-24T10:04:11.521Z,29.00
2022-08-24T10:07:15.705Z,29.10
2022-08-24T10:10:28.966Z,29.30
2022-08-24T10:13:09.944Z,29.50
2022-08-24T10:15:56.207Z,29.70
2022-08-24T10:18:41.363Z,29.80
2022-08-24T10:21:45.772Z,30.00
2022-08-24T10:24:43.767Z,30.10
2022-08-24T10:27:21.169Z,30.20
2022-08-24T10:29:49.488Z,30.40
2022-08-24T10:32:54.852Z,30.60
2022-08-24T10:35:38.100Z,30.70
2022-08-24T10:38:42.298Z,30.90
2022-08-24T10:41:33.008Z,31.00
2022-08-24T10:44:25.253Z,31.10
2022-08-24T10:47:00.299Z,31.10
2022-08-24T10:49:37.595Z,31.30
2022-08-24T10:52:24.835Z,31.40
2022-08-24T10:54:53.112Z,31.40
2022-08-24T10:57:39.735Z,31.50
2022-08-24T11:00:22.514Z,31.50
2022-08-24T11:03:16.282Z,31.70
2022-08-24T11:05:54.223Z,31.70
2022-08-24T11:08:25.976Z,31.80
2022-08-24T11:11:11.649Z,31.80
2022-08-24T11:13:59.359Z,31.90
2022-08-24T11:16:38.292Z,31.90
2022-08-24T11:19:29.462Z,31.90
2022-08-24T11:22:02.159Z,31.90
2022-08-24T11:24:46.388Z,31.90
2022-08-24T11:27:17.351Z,31.90
2022-08-24T11:29:55.020Z,32.00
2022-08-24T11:32:33.461Z,32.00
2022-08-24T11:35:08.825Z,32.10
2022-08-24T11:37:39.921Z,32.10
2022-08-24T11:40:10.160Z,32.30
2022-08-24T11:42:47.287Z,32.40
2022-08-24T11:45:44.639Z,32.30
2022-08-24T11:48:31.195Z,32.30
2022-08-24T11:51:12.898Z,32.20
2022-08-24T11:53:53.217Z,32.20
2022-08-24T12:25:40.861Z,31.70
2022-08-24T12:28:10.581Z,31.60
2022-08-24T12:30:38.534Z,31.50
2022-08-24T12:33:13.337Z,31.50
2022-08-24T12:35:54.607Z,31.50
2022-08-24T12:38:32.556Z,31.50
2022-08-24T12:41:14.622Z,31.60
2022-08-24T12:43:59.219Z,31.60
2022-08-24T12:46:27.912Z,31.60
2022-08-24T12:49:05.321Z,31.60
2022-08-24T12:52:11.919Z,31.60
2022-08-24T12:54:39.670Z,31.80
2022-08-24T12:57:25.788Z,31.80
2022-08-24T12:59:58.050Z,31.80
2022-08-24T13:02:36.457Z,31.80
2022-08-24T13:05:19.325Z,31.80
2022-08-24T13:07:50.121Z,31.70
2022-08-24T13:10:26.724Z,31.70
2022-08-24T13:13:10.781Z,31.70
2022-08-24T13:15:38.830Z,31.60
2022-08-24T13:18:10.787Z,31.60
2022-08-24T13:20:44.807Z,31.50
2022-08-24T13:23:16.362Z,31.50
2022-08-24T13:25:46.910Z,31.50
2022-08-24T13:28:21.263Z,31.50
2022-08-24T13:31:26.672Z,31.50
2022-08-24T13:34:05.661Z,31.60
2022-08-24T13:36:54.612Z,31.60
2022-08-24T13:39:51.027Z,31.70
2022-08-24T13:42:50.767Z,31.70
2022-08-24T13:45:24.634Z,31.70
2022-08-24T13:48:07.623Z,31.80
2022-08-24T13:51:07.367Z,31.90
2022-08-24T13:53:47.068Z,31.90
2022-08-24T13:56:46.425Z,31.90
2022-08-24T13:59:33.377Z,31.90
2022-08-24T14:02:16.826Z,32.00
2022-08-24T14:05:12.696Z,32.00
2022-08-24T14:07:59.480Z,31.90
2022-08-24T14:11:04.126Z,31.90
2022-08-24T14:13:37.724Z,31.90
2022-08-24T14:17:00.496Z,31.90
2022-08-24T14:19:54.217Z,31.90
2022-08-24T14:22:33.887Z,31.90
2022-08-24T14:25:21.574Z,31.80
2022-08-24T14:27:54.539Z,31.80
2022-08-24T14:30:25.367Z,31.80
2022-08-24T14:33:03.407Z,31.80
2022-08-24T14:36:03.398Z,31.80
2022-08-24T14:38:31.276Z,31.80
2022-08-24T14:41:20.016Z,31.80
2022-08-24T14:44:15.418Z,31.70
2022-08-24T14:47:21.397Z,31.70
2022-08-24T14:50:09.157Z,31.70
2022-08-24T14:52:46.510Z,31.70
2022-08-24T14:55:45.074Z,31.70
2022-08-24T14:58:23.770Z,31.70
2022-08-24T15:01:25.340Z,31.80
2022-08-24T15:04:37.060Z,31.80
2022-08-24T15:07:35.535Z,31.80
2022-08-24T15:10:15.206Z,31.80
2022-08-24T15:12:52.881Z,31.70
2022-08-24T15:15:57.909Z,31.70
2022-08-24T15:18:51.433Z,31.70
2022-08-24T15:21:30.002Z,31.70
2022-08-24T15:24:27.524Z,31.60
2022-08-24T15:27:12.602Z,31.50
2022-08-24T15:29:59.268Z,31.50
2022-08-24T15:32:45.111Z,31.30
2022-08-24T15:35:24.040Z,31.20
2022-08-24T15:37:52.858Z,31.30
2022-08-24T15:40:31.183Z,31.30
2022-08-24T15:43:05.416Z,31.50
2022-08-24T15:45:33.913Z,31.50
2022-08-24T15:48:05.548Z,31.60
2022-08-24T15:50:43.075Z,31.60
2022-08-24T15:53:34.989Z,31.50
2022-08-24T15:56:21.310Z,31.50
2022-08-24T15:58:50.395Z,31.50
2022-08-24T16:01:36.739Z,31.60
2022-08-24T16:04:35.720Z,31.70
2022-08-24T16:07:03.852Z,31.80
2022-08-24T16:09:37.992Z,31.90
2022-08-24T16:12:14.113Z,32.00
2022-08-24T16:14:50.906Z,32.00
2022-08-24T16:17:26.610Z,32.10
2022-08-24T16:19:59.747Z,32.10
2022-08-24T16:22:38.452Z,32.20
2022-08-24T16:25:26.726Z,32.10
2022-08-24T16:27:56.698Z,32.20
2022-08-24T16:30:58.441Z,32.20
2022-08-24T16:33:32.960Z,32.20
2022-08-24T16:36:07.505Z,32.10
2022-08-24T16:38:36.713Z,32.10
2022-08-24T16:41:10.794Z,32.20
2022-08-24T16:43:41.710Z,32.20
2022-08-24T16:46:12.533Z,32.30
2022-08-24T16:48:41.178Z,32.40
2022-08-24T16:51:09.229Z,32.40
2022-08-24T16:53:37.410Z,32.30
2022-08-24T16:56:08.998Z,32.30
2022-08-24T16:58:37.700Z,32.10
2022-08-24T17:01:06.229Z,31.90
2022-08-24T17:03:34.359Z,31.80
2022-08-24T17:06:02.188Z,31.70
2022-08-24T17:08:30.536Z,31.60
2022-08-24T17:10:58.531Z,31.50
2022-08-24T17:13:48.502Z,31.40
2022-08-24T17:16:15.092Z,31.30
2022-08-24T17:18:43.419Z,31.20
2022-08-24T17:21:11.610Z,31.10
2022-08-24T17:23:41.900Z,31.00
2022-08-24T17:26:20.231Z,30.90
2022-08-24T17:28:52.861Z,30.80
2022-08-24T17:31:21.092Z,30.60
2022-08-24T17:33:49.442Z,30.60
2022-08-24T17:36:20.897Z,30.50
2022-08-24T17:38:55.755Z,30.40
2022-08-24T17:41:26.188Z,30.30
2022-08-24T17:43:55.481Z,30.20
2022-08-24T17:46:24.281Z,30.10
2022-08-24T17:48:52.703Z,30.00
2022-08-24T17:51:20.787Z,30.00
2022-08-24T17:53:49.017Z,29.90
2022-08-24T17:56:17.508Z,29.80
2022-08-24T17:59:04.293Z,29.80
2022-08-24T18:01:32.752Z,29.70
2022-08-24T18:04:00.881Z,29.60
2022-08-24T18:06:29.347Z,29.60
2022-08-24T18:09:19.434Z,29.50
2022-08-24T18:11:47.329Z,29.50
2022-08-24T18:14:15.975Z,29.40
2022-08-24T18:16:44.412Z,29.30
2022-08-24T18:19:24.359Z,29.30
2022-08-24T18:21:52.735Z,29.20
2022-08-24T18:24:20.814Z,29.20
2022-08-24T18:26:49.939Z,29.10
2022-08-24T18:29:21.000Z,29.10
2022-08-24T18:31:49.504Z,29.00
2022-08-24T18:34:21.703Z,29.00
2022-08-24T18:36:49.864Z,28.90
2022-08-24T18:39:18.697Z,28.80
2022-08-24T18:41:49.226Z,28.80
2022-08-24T18:44:22.953Z,28.80
2022-08-24T18:46:51.890Z,28.70
2022-08-24T18:49:21.267Z,28.60
2022-08-24T18:51:50.221Z,28.60
2022-08-24T18:54:29.779Z,28.50
2022-08-24T18:56:57.810Z,28.50
2022-08-24T18:59:26.478Z,28.40
2022-08-24T19:02:13.649Z,28.40
2022-08-24T19:04:47.452Z,28.40
2022-08-24T19:07:15.863Z,28.30
2022-08-24T19:09:44.085Z,28.20
2022-08-24T19:12:23.324Z,28.20
2022-08-24T19:14:58.236Z,28.10
2022-08-24T19:17:26.925Z,28.10
2022-08-24T19:19:55.230Z,28.10
2022-08-24T19:22:23.247Z,28.00
2022-08-24T19:24:52.138Z,28.00
2022-08-24T19:27:21.096Z,28.00
2022-08-24T19:29:56.975Z,28.00
2022-08-24T19:32:29.231Z,27.90
2022-08-24T19:34:59.054Z,27.90
2022-08-24T19:37:27.568Z,27.80
2022-08-24T19:39:55.527Z,27.70
2022-08-24T19:42:25.535Z,27.60
2022-08-24T19:45:12.625Z,27.50
2022-08-24T19:47:41.006Z,27.40
2022-08-24T19:50:09.877Z,27.40
2022-08-24T19:52:40.945Z,27.30
2022-08-24T19:55:09.951Z,27.20
2022-08-24T19:57:44.360Z,27.20
2022-08-24T20:00:18.440Z,27.10
2022-08-24T20:02:51.992Z,27.10
2022-08-24T20:05:22.048Z,27.00
2022-08-24T20:07:52.038Z,26.90
2022-08-24T20:10:22.684Z,26.90
2022-08-24T20:12:52.181Z,26.90
2022-08-24T20:15:21.073Z,26.80
2022-08-24T20:17:49.521Z,26.80
2022-08-24T20:20:20.115Z,26.70
2022-08-24T20:22:48.389Z,26.60
2022-08-24T20:25:16.942Z,26.60
2022-08-24T20:27:46.172Z,26.50
2022-08-24T20:30:15.845Z,26.50
2022-08-24T20:32:44.272Z,26.40
2022-08-24T20:35:16.500Z,26.40
2022-08-24T20:37:44.603Z,26.30
2022-08-24T20:40:17.520Z,26.20
2022-08-24T20:42:45.916Z,26.20
2022-08-24T20:45:15.048Z,26.10
2022-08-24T20:47:51.549Z,26.10
2022-08-24T20:50:23.789Z,25.90
2022-08-24T20:52:52.917Z,25.80
2022-08-24T20:55:22.011Z,25.80
2022-08-24T20:57:53.662Z,25.70
2022-08-24T21:00:23.899Z,25.60
2022-08-24T21:02:52.656Z,25.60
2022-08-24T21:05:21.431Z,25.50
2022-08-24T21:07:50.111Z,25.50
2022-08-24T21:10:26.383Z,25.40
2022-08-24T21:12:55.702Z,25.40
2022-08-24T21:15:23.579Z,25.40
2022-08-24T21:17:51.823Z,25.30
2022-08-24T21:20:20.739Z,25.30
2022-08-24T21:22:49.919Z,25.30
2022-08-24T21:25:19.748Z,25.20
2022-08-24T21:27:48.912Z,25.10
2022-08-24T21:30:21.571Z,25.10
2022-08-24T21:33:08.612Z,25.10
2022-08-24T21:35:37.408Z,25.10
2022-08-24T21:38:05.915Z,25.00
2022-08-24T21:40:36.482Z,24.90
2022-08-24T21:43:12.642Z,24.90
2022-08-24T21:45:47.837Z,24.90
2022-08-24T21:48:16.017Z,24.90
2022-08-24T21:50:44.304Z,24.80
2022-08-24T21:53:12.600Z,24.80
2022-08-24T21:55:42.087Z,24.70
2022-08-24T21:58:11.485Z,24.70
2022-08-24T22:00:40.038Z,24.60
2022-08-24T22:03:08.863Z,24.60
2022-08-24T22:05:37.017Z,24.50
2022-08-24T22:08:05.630Z,24.50
2022-08-24T22:10:33.651Z,24.50
2022-08-24T22:13:04.359Z,24.40
2022-08-24T22:15:36.400Z,24.40
2022-08-24T22:18:05.032Z,24.30
2022-08-24T22:20:32.851Z,24.30
2022-08-24T22:23:01.635Z,24.20
2022-08-24T22:25:30.957Z,24.10
2022-08-24T22:27:59.280Z,24.10
2022-08-24T22:30:27.654Z,24.00
2022-08-24T22:32:55.731Z,24.00
2022-08-24T22:35:23.766Z,23.90
2022-08-24T22:37:52.268Z,23.90
2022-08-24T22:40:20.482Z,23.90
2022-08-24T22:42:48.493Z,23.90
2022-08-24T22:45:16.914Z,23.80
2022-08-24T22:47:44.956Z,23.80
2022-08-24T22:50:13.166Z,23.80
2022-08-24T22:52:41.547Z,23.70
2022-08-24T22:55:10.327Z,23.80
2022-08-24T22:57:38.433Z,23.70
2022-08-24T23:00:10.064Z,23.70
2022-08-24T23:02:39.062Z,23.70
2022-08-24T23:05:08.728Z,23.70
2022-08-24T23:07:36.567Z,23.70
2022-08-24T23:10:06.112Z,23.70
2022-08-24T23:12:34.749Z,23.60
2022-08-24T23:15:02.712Z,23.60
2022-08-24T23:17:30.614Z,23.60
2022-08-24T23:20:01.752Z,23.60
2022-08-24T23:22:34.568Z,23.60
2022-08-24T23:25:02.843Z,23.60
2022-08-24T23:27:37.643Z,23.60
2022-08-24T23:30:12.903Z,23.50
2022-08-24T23:32:40.967Z,23.50
2022-08-24T23:35:09.764Z,23.40
2022-08-24T23:37:37.857Z,23.40
2022-08-24T23:40:06.171Z,23.40
2022-08-24T23:42:34.687Z,23.40
2022-08-24T23:45:02.640Z,23.40
2022-08-24T23:47:30.743Z,23.40
2022-08-24T23:50:10.918Z,23.40
2022-08-24T23:52:39.999Z,23.30
2022-08-24T23:55:20.889Z,23.30
2022-08-24T23:57:50.492Z,23.30
